Pacific - South Coast: Past 24 Hour Conditions

 

Bella Bella Airport

11:00 PM PDT 28 July 2014
This table is a summary of hourly weather conditions for the past 24 hours.
Date / Time
(PDT)
Wind(knots) Conditions Visibility(km) Pressure(kPa) Air tempC) Relative humidity(%) Dew pointC) Humidex
28 July 2014
23:00 SSW 2 Cloudy 16 102.2 17 78 13 *
22:00 SSE 2 Cloudy 16 102.2 17 78 13 *
21:00 SSW 4 Cloudy 16 102.2 18 69 12 *
20:00 S 3 Mostly Cloudy 16 102.2 19 68 13 *
19:00 S 5 Mainly Sunny 16 102.2 21 60 13 *
18:00 SSW 6 Mostly Cloudy 16 102.2 21 59 13 *
17:00 SSW 6 Mostly Cloudy 16 102.2 21 56 12 *
16:00 S 8 Mainly Sunny 16 102.2 22 59 13 *
15:00 WSW 4 Sunny 16 102.2 23 57 14 26
14:00 N 6 Sunny 16 102.2 22 64 15 25
13:00 NNW 6 Sunny 16 102.2 21 68 15 *
12:00 ENE 4 Sunny 16 102.2 20 70 14 *
11:00 SSE 2 Mostly Cloudy 16 102.3 17 86 15 *
10:00 SSE 3 Cloudy 16 102.3 15 94 14 *
9:00 SE 2 Mist 8 102.3 14 98 14 *
8:00 SE 4 Mist 2 102.3 13 98 13 *
7:00 SE 3 Mist 1 102.3 13 98 13 *
6:00 SE 2 Light Rain 0.2 102.3 13 98 13 *
5:00 calm Light Rain 0.4 102.3 13 98 13 *
4:00 SE 2 Light Rain 0.4 102.3 14 98 14 *
3:00 S 2 Mist 3 102.3 13 97 13 *
2:00 calm Cloudy 16 102.3 13 95 12 *
1:00 calm Clear 16 102.3 13 93 11 *
0:00 calm Partly Cloudy 16 102.3 14 93 13 *
27 July 2014
23:00 calm Clear 16 102.3 15 94 14 *
 
Map of Pacific - South Coast marine weather areas Tsawwassen Ferry Terminal South Nomad - 46036 Sentry Shoal - 46131 South Brooks - 46132 Halibut Bank - 46146 South Moresby - 46147 South Hecate Strait - 46185 West Sea Otter - 46204 La Perouse Bank - 46206 East Dellwood - 46207 Discovery Island Esquimalt Harbour Kelp Reefs Malahat Race Rocks Lightstation Saturna Island Sheringham Point University of Victoria Victoria Gonzales Victoria Int'l Airport Ballenas Islands Campbell River Airport Comox Airport Entrance Island Fanny Island Nanaimo Airport Port Hardy Airport Sisters Islets Estevan Point Sartine Island Solander Island Tofino Airport Grief Point Powell River Airport Sechelt Cape St.James Bella Bella Airport Bella Coola Airport Cathedral Point Herbert Island Point Atkinson Sand Heads Lightstation Vancouver Harbour Vancouver Int'l Airport West Vancouver Port Alberni Howe Sound - Pam Rocks Squamish Airport